createdAt,value
2018-08-03T18:01:54.940Z,31.40
2018-08-03T18:04:40.951Z,32.40
2018-08-03T18:07:10.031Z,33.30
2018-08-03T18:09:38.917Z,34.00
2018-08-03T18:12:08.324Z,34.10
2018-08-03T18:14:37.271Z,33.70
2018-08-03T18:17:07.350Z,32.70
2018-08-03T18:22:05.370Z,30.30
2018-08-03T18:24:35.148Z,29.60
2018-08-03T18:27:04.775Z,29.00
2018-08-03T18:29:33.730Z,28.70
2018-08-03T18:32:04.940Z,28.90
2018-08-03T18:34:36.611Z,29.20
2018-08-03T18:37:05.431Z,29.60
2018-08-03T18:39:34.358Z,29.70
2018-08-03T18:42:03.373Z,30.10
2018-08-03T18:44:32.218Z,30.60
2018-08-03T18:47:02.924Z,30.90
2018-08-03T18:49:31.803Z,30.90
2018-08-03T18:52:00.824Z,30.60
2018-08-03T18:54:30.210Z,30.50
2018-08-03T18:56:59.134Z,30.30
2018-08-03T18:59:28.158Z,29.80
2018-08-03T19:01:57.027Z,29.40
2018-08-03T19:04:25.872Z,28.80
2018-08-03T19:06:56.884Z,28.20
2018-08-03T19:09:25.755Z,27.60
2018-08-03T19:11:55.967Z,27.00
2018-08-03T19:14:24.887Z,26.40
2018-08-03T19:16:54.345Z,25.80
2018-08-03T19:19:23.263Z,25.30
2018-08-03T19:21:52.194Z,25.10
2018-08-03T19:24:25.428Z,25.10
2018-08-03T19:26:54.443Z,24.90
2018-08-03T19:29:23.472Z,24.60
2018-08-03T19:31:53.839Z,24.40
2018-08-03T19:34:22.794Z,24.20
2018-08-03T19:36:51.796Z,24.00
2018-08-03T19:39:20.670Z,23.70
2018-08-03T19:41:50.085Z,23.60
2018-08-03T19:44:19.888Z,23.30
2018-08-03T19:46:49.055Z,23.20
2018-08-03T19:49:18.628Z,23.10
2018-08-03T19:51:50.436Z,22.90
2018-08-03T19:54:19.682Z,22.90
2018-08-03T19:56:50.763Z,22.70
2018-08-03T19:59:19.869Z,22.70
2018-08-03T20:01:49.729Z,22.60
2018-08-03T20:04:19.801Z,22.50
2018-08-03T20:06:49.218Z,22.40
2018-08-03T20:09:18.449Z,22.30
2018-08-03T20:11:51.107Z,22.30
2018-08-03T20:14:20.055Z,22.30
2018-08-03T20:16:49.353Z,22.20
2018-08-03T20:19:18.499Z,22.20
2018-08-03T20:21:51.882Z,22.10
2018-08-03T20:24:21.547Z,22.10
2018-08-03T20:26:50.701Z,22.10
2018-08-03T20:31:54.802Z,22.00
2018-08-03T20:34:23.878Z,21.90
2018-08-03T20:36:53.073Z,21.90
2018-08-03T20:39:22.015Z,21.80
2018-08-03T20:41:50.956Z,21.80
2018-08-03T20:44:19.951Z,21.70
2018-08-03T20:46:50.055Z,21.60
2018-08-03T20:49:20.364Z,21.60
2018-08-03T20:51:55.877Z,21.50
2018-08-03T20:56:56.771Z,21.40
2018-08-03T20:59:26.153Z,21.30
2018-08-03T21:01:55.110Z,21.20
2018-08-03T21:04:24.030Z,21.20
2018-08-03T21:06:53.098Z,21.10
2018-08-03T21:09:22.181Z,21.10
2018-08-03T21:11:52.081Z,21.10
2018-08-03T21:14:25.120Z,21.10
2018-08-03T21:16:55.120Z,21.10
2018-08-03T21:21:52.522Z,21.00
2018-08-03T21:24:23.189Z,21.00
2018-08-03T21:29:20.694Z,20.90
2018-08-03T21:31:50.861Z,20.80
2018-08-03T21:34:19.987Z,20.70
2018-08-03T21:36:49.327Z,20.60
2018-08-03T21:39:18.383Z,20.60
2018-08-03T21:41:54.453Z,20.50
2018-08-03T21:44:23.655Z,20.50
2018-08-03T21:46:52.534Z,20.50
2018-08-03T21:49:21.928Z,20.50
2018-08-03T21:51:54.308Z,20.40
2018-08-03T21:54:23.269Z,20.40
2018-08-03T21:56:52.139Z,20.40
2018-08-03T21:59:21.191Z,20.30
2018-08-03T22:01:50.772Z,20.30
2018-08-03T22:04:19.720Z,20.20
2018-08-03T22:06:48.757Z,20.20
2018-08-03T22:09:18.054Z,20.20
2018-08-03T22:11:48.104Z,20.20
2018-08-03T22:14:17.093Z,20.20
2018-08-03T22:16:47.181Z,20.10
2018-08-03T22:19:16.202Z,20.10
2018-08-03T22:21:45.243Z,20.10
2018-08-03T22:24:15.172Z,19.90
2018-08-03T22:26:44.142Z,19.90
2018-08-03T22:29:13.788Z,19.90
2018-08-03T22:31:42.973Z,19.90
2018-08-03T22:34:11.814Z,19.80
2018-08-03T22:36:40.789Z,19.80
2018-08-03T22:39:10.095Z,19.80
2018-08-03T22:41:39.617Z,19.80
2018-08-03T22:44:08.616Z,19.70
2018-08-03T22:46:39.399Z,19.60
2018-08-03T22:49:08.789Z,19.60
2018-08-03T22:51:37.764Z,19.50
2018-08-03T22:54:06.954Z,19.40
2018-08-03T22:56:36.790Z,19.30
2018-08-03T22:59:05.969Z,19.30
2018-08-03T23:01:35.151Z,19.30
2018-08-03T23:04:04.217Z,19.30
2018-08-03T23:06:33.136Z,19.30
2018-08-03T23:09:02.699Z,19.30
2018-08-03T23:11:31.661Z,19.30
2018-08-03T23:14:00.959Z,19.50
2018-08-03T23:16:30.189Z,19.40
2018-08-03T23:18:59.377Z,19.40
2018-08-03T23:21:28.499Z,19.50
2018-08-03T23:23:58.253Z,19.50
2018-08-03T23:26:28.129Z,19.50
2018-08-03T23:28:58.246Z,19.40
2018-08-03T23:31:27.859Z,19.40
2018-08-03T23:33:58.041Z,19.40
2018-08-03T23:36:27.652Z,19.40
2018-08-03T23:38:58.348Z,19.40
2018-08-03T23:41:28.325Z,19.50
2018-08-03T23:43:57.355Z,19.40
2018-08-03T23:46:26.249Z,19.30
2018-08-03T23:48:57.751Z,19.30
2018-08-03T23:51:26.812Z,19.30
2018-08-03T23:53:55.873Z,19.30
2018-08-03T23:56:26.144Z,19.30
